Airfield :
LOGIN :

Register | Disclaimer

   EN    FR    IT 

 










Legend :    VFR   Marginal VFR   IFR   Intensive IFR   Very Intensive IFR
Visi :
Ceiling :
>= 8 km
>= 3000ft
5 to 8 km
1000 to 3000 ft
1500m to 5 km
500 to 1000 ft
800 to 1500m
200 to 500 ft
< 800m
< 200 ft
Symbols :   Thunderstorms  Fog  Heavy snow  Heavy precipitations  Wind > 20 kt
SIGMETs :     Misc.  Thunderstorms  Icing  Turbulence  Mountain Waves  Volcanic Ashes






- Airport Elevation : 1345 ft
- IATA code : FRZ


ETHF - Fritzlar

CURRENT METAR :
  • 200720Z 12002KT 0800 R30/1400U FG BKN008 01/00 Q1019 AMB WHT TEMPO RED

EXPIRED METARs :
  • 200632Z 03002KT 0100 R30/0750D FG FEW007 BKN022 01/01 Q1018 RED WHT TEMPO RED
  • 200620Z 36002KT 3500 VCFG MIFG FEW009 SCT025 02/01 Q1018 YLO WHT TEMPO RED
  • 200520Z 00000KT 4000 BR FEW009 BKN025 02/02 Q1018 GRN WHT TEMPO RED

TAF TAF ETHF
Valid from the 20 at 06:00 until the 20 at 15:00 UTC


200516Z 2006/2015 VRB03KT 5000 BR SCT010 BKN015
TEMPO 2006/2009 00000KT 0500 FG VV002
BECMG 2009/2011 08004KT 8000 NSW FEW010 BKN020
TEMPO 2011/2015 09005KT 9999 NSW FEW015 SCT025



MET'MAP, your aeronautical weather chart ! - Copyright ORBIFLY December 2007 - Disclaimer

ORBIFLY MET'MAP TEAM :

Programming & Development : Alexandra Zaïnal
Concept & Development : Baudouin d'Aumeries
Co-Development & Prog : Marc-Olivier Méhu
Technical & hardware support : Manuel Goepfert

Contact : metmap@orbifly.com




SOURCES & CREDITS :

   NOAA